Time;durP1;ratioP1;P1;durP2;ratioP2;P2;SDS_P1;SDS_P2;PMS_P1;PMS_P2;Temp;Humidity;BMP_temperature;BMP_pressure;BME280_temperature;BME280_humidity;BME280_pressure;Samples;Min_cycle;Max_cycle;Signal;HPM_P1;HPM_P2
2023/04/09 00:02:15;;;;;;;82.93;51.65;;;154.40;2252.80;;;;;;5035737;28;20021;-84
2023/04/09 00:04:40;;;;;;;94.90;56.97;;;179.20;2252.80;;;;;;5036108;28;20029;-83
2023/04/09 00:07:06;;;;;;;103.45;64.75;;;179.30;2252.80;;;;;;5037668;28;20047;-82
2023/04/09 00:09:32;;;;;;;97.53;61.17;;;179.30;2252.80;;;;;;5040969;28;20032;-81
2023/04/09 00:11:58;;;;;;;89.22;57.33;;;179.30;2252.80;;;;;;5044835;28;20031;-81
2023/04/09 00:14:24;;;;;;;86.57;52.42;;;154.50;2252.80;;;;;;5041455;28;20523;-85
2023/04/09 00:16:50;;;;;;;70.15;48.88;;;154.30;2252.80;;;;;;5039564;28;20508;-83
2023/04/09 00:19:15;;;;;;;64.00;43.08;;;154.40;2252.80;;;;;;5057225;28;20033;-84
2023/04/09 00:21:41;;;;;;;53.20;38.80;;;154.30;2252.80;;;;;;5039091;28;20025;-83
2023/04/09 00:24:07;;;;;;;60.25;39.13;;;154.40;2252.80;;;;;;5039312;28;20025;-84
2023/04/09 00:26:33;;;;;;;56.65;35.83;;;154.40;2252.80;;;;;;5039290;28;20434;-82
2023/04/09 00:28:59;;;;;;;45.08;32.13;;;154.30;2252.80;;;;;;5038935;28;20029;-84
2023/04/09 00:31:25;;;;;;;40.65;29.60;;;154.20;2252.80;;;;;;5039179;28;20362;-80
2023/04/09 00:33:51;;;;;;;43.42;29.50;;;154.20;2252.80;;;;;;5039190;28;20032;-85
2023/04/09 00:36:17;;;;;;;51.13;34.03;;;154.10;2252.80;;;;;;5038790;28;20064;-82
2023/04/09 00:38:43;;;;;;;68.60;43.25;;;154.10;2252.80;;;;;;5038779;28;20553;-82
2023/04/09 00:41:09;;;;;;;93.13;52.58;;;153.90;2252.80;;;;;;5038955;28;20036;-81
2023/04/09 00:43:35;;;;;;;66.90;40.60;;;153.90;2252.80;;;;;;5038757;28;20031;-83
2023/04/09 00:46:00;;;;;;;66.90;42.88;;;153.80;2252.80;;;;;;5038865;28;20028;-83
2023/04/09 00:48:27;;;;;;;78.30;48.08;;;153.90;2252.80;;;;;;5038366;28;20033;-84
2023/04/09 00:50:53;;;;;;;81.50;51.55;;;153.80;2252.80;;;;;;5038822;28;20033;-85
2023/04/09 00:53:19;;;;;;;54.17;35.70;;;153.80;2252.80;;;;;;5038703;28;20060;-83
2023/04/09 00:55:45;;;;;;;55.35;36.00;;;153.90;2252.80;;;;;;5038456;28;20128;-84
2023/04/09 00:58:12;;;;;;;70.68;45.50;;;154.00;2252.80;;;;;;5037518;28;20068;-83
2023/04/09 01:00:37;;;;;;;79.07;47.42;;;154.20;2252.80;;;;;;5038166;28;20032;-81
2023/04/09 01:03:05;;;;;;;81.15;49.95;;;154.10;2252.80;;;;;;5037383;28;20393;-85
2023/04/09 01:06:10;;;;;;;54.38;36.35;;;154.10;2252.80;;;;;;5038415;28;20427;-82
2023/04/09 01:08:54;;;;;;;49.53;34.17;;;153.90;2252.80;;;;;;5014695;28;20037;-84
2023/04/09 01:11:42;;;;;;;45.80;29.90;;;153.90;2252.80;;;;;;5038256;28;20032;-85
2023/04/09 01:14:26;;;;;;;52.13;33.50;;;154.00;2252.80;;;;;;5038391;28;20021;-81
2023/04/09 01:17:02;;;;;;;53.25;34.75;;;153.90;2252.80;;;;;;5038125;28;20028;-83
2023/04/09 01:19:47;;;;;;;52.15;34.42;;;153.90;2252.80;;;;;;5037917;28;20550;-82
2023/04/09 01:22:23;;;;;;;69.03;41.78;;;153.80;2252.80;;;;;;5038400;28;20052;-85
2023/04/09 01:25:20;;;;;;;49.60;32.90;;;153.70;2252.80;;;;;;5037849;28;20021;-85
2023/04/09 01:28:01;;;;;;;36.15;29.38;;;153.70;2252.80;;;;;;5037319;28;20481;-83
2023/04/09 01:30:28;;;;;;;56.95;37.22;;;153.80;2252.80;;;;;;5037756;28;20032;-82
2023/04/09 01:32:56;;;;;;;46.78;30.38;;;153.80;2252.80;;;;;;5037206;28;20025;-84
2023/04/09 01:35:23;;;;;;;50.28;33.40;;;153.70;2252.80;;;;;;5037902;28;20051;-81
2023/04/09 01:37:50;;;;;;;44.70;30.77;;;153.60;2252.80;;;;;;5037606;28;20114;-79
2023/04/09 01:40:16;;;;;;;46.67;29.73;;;153.70;2252.80;;;;;;5037954;28;20025;-84
2023/04/09 01:42:42;;;;;;;44.70;30.40;;;153.80;2252.80;;;;;;5037889;28;20025;-82
2023/04/09 01:45:10;;;;;;;38.88;27.85;;;154.00;2252.80;;;;;;5037549;28;20029;-81
2023/04/09 01:47:37;;;;;;;43.58;28.63;;;153.80;2252.80;;;;;;5037649;28;20052;-82
2023/04/09 01:50:03;;;;;;;51.28;32.33;;;153.60;2252.80;;;;;;5037703;28;20365;-82
2023/04/09 01:52:29;;;;;;;68.50;43.67;;;153.80;2252.80;;;;;;5037322;28;20029;-83
2023/04/09 01:54:55;;;;;;;66.72;41.97;;;128.90;2252.80;;;;;;5037683;28;20028;-82
2023/04/09 01:57:21;;;;;;;69.90;42.60;;;128.80;2252.80;;;;;;5037486;28;20033;-82
2023/04/09 01:59:47;;;;;;;78.97;47.25;;;128.80;2252.80;;;;;;5037313;28;20484;-83
2023/04/09 02:02:19;;;;;;;89.93;49.38;;;128.90;2252.80;;;;;;5037453;28;20025;-85
2023/04/09 02:04:50;;;;;;;59.63;36.45;;;128.90;2252.80;;;;;;5037417;28;20492;-84
2023/04/09 02:07:37;;;;;;;59.42;38.50;;;128.80;2252.80;;;;;;5037192;28;20083;-84
2023/04/09 02:10:05;;;;;;;109.60;62.92;;;128.80;2252.80;;;;;;5037442;28;20033;-86
2023/04/09 02:12:34;;;;;;;78.88;46.45;;;128.80;2252.80;;;;;;5037051;28;20029;-83
2023/04/09 02:15:01;;;;;;;52.20;36.50;;;128.80;2252.80;;;;;;5037444;28;20029;-83
2023/04/09 02:17:27;;;;;;;67.78;43.45;;;128.80;2252.80;;;;;;5037134;28;20075;-87
2023/04/09 02:19:52;;;;;;;80.97;47.03;;;128.80;2252.80;;;;;;5036982;28;20385;-84
2023/04/09 02:22:18;;;;;;;48.72;33.67;;;128.80;2252.80;;;;;;5037034;28;20021;-82
2023/04/09 02:24:45;;;;;;;42.85;28.48;;;128.70;2252.80;;;;;;5036989;28;20049;-81
2023/04/09 02:27:11;;;;;;;35.17;25.80;;;128.70;2252.80;;;;;;5036741;28;20039;-83
2023/04/09 02:29:40;;;;;;;32.10;25.20;;;128.60;2252.80;;;;;;5037055;28;20033;-82
2023/04/09 02:32:06;;;;;;;33.63;25.63;;;128.60;2252.80;;;;;;5036080;28;20124;-84
2023/04/09 02:34:32;;;;;;;37.22;25.92;;;128.50;2252.80;;;;;;5036633;28;20112;-86
2023/04/09 02:36:58;;;;;;;37.92;26.45;;;128.60;2252.80;;;;;;5036547;28;20041;-85
2023/04/09 02:39:24;;;;;;;37.63;28.17;;;128.50;2252.80;;;;;;5036532;28;20041;-84
2023/04/09 02:41:49;;;;;;;31.90;25.63;;;128.50;2252.80;;;;;;5053393;28;20029;-84
2023/04/09 02:44:15;;;;;;;37.72;25.50;;;128.60;2252.80;;;;;;5036785;28;20032;-83
2023/04/09 02:46:43;;;;;;;32.40;23.30;;;128.50;2252.80;;;;;;5036729;28;20461;-85
2023/04/09 02:49:08;;;;;;;36.67;26.85;;;128.20;2252.80;;;;;;5035518;28;20496;-83
2023/04/09 02:51:35;;;;;;;46.08;31.08;;;128.30;2252.80;;;;;;5035650;28;20033;-83
2023/04/09 02:54:01;;;;;;;41.55;29.83;;;128.40;2252.80;;;;;;5041302;28;20036;-82
2023/04/09 02:56:29;;;;;;;46.45;30.95;;;128.40;2252.80;;;;;;5052586;28;20021;-85
2023/04/09 02:58:55;;;;;;;47.33;32.15;;;128.40;2252.80;;;;;;5038311;28;20461;-85
2023/04/09 03:01:21;;;;;;;38.75;28.58;;;128.40;2252.80;;;;;;5035729;28;20025;-82
2023/04/09 03:03:47;;;;;;;37.08;25.25;;;128.40;2252.80;;;;;;5035489;28;20079;-83
2023/04/09 03:06:13;;;;;;;38.55;27.48;;;128.40;2252.80;;;;;;5036375;28;20033;-86
2023/04/09 03:08:39;;;;;;;45.47;28.08;;;128.40;2252.80;;;;;;5035697;28;20029;-85
2023/04/09 03:11:04;;;;;;;34.92;26.27;;;128.50;2252.80;;;;;;5036310;28;20062;-85
2023/04/09 03:13:30;;;;;;;43.58;27.40;;;128.30;2252.80;;;;;;5036265;28;20029;-82
2023/04/09 03:15:56;;;;;;;42.33;28.63;;;128.40;2252.80;;;;;;5036149;28;20017;-85
2023/04/09 03:18:22;;;;;;;41.17;28.33;;;128.40;2252.80;;;;;;5036172;28;20021;-83
2023/04/09 03:20:48;;;;;;;31.20;23.83;;;128.40;2252.80;;;;;;5036252;28;20471;-81
2023/04/09 03:23:14;;;;;;;34.55;23.88;;;128.40;2252.80;;;;;;5035692;28;20029;-84
2023/04/09 03:25:40;;;;;;;35.55;23.50;;;128.30;2252.80;;;;;;5035897;28;20032;-82
2023/04/09 03:28:06;;;;;;;35.17;23.92;;;128.20;2252.80;;;;;;5035759;28;20025;-84
2023/04/09 03:30:31;;;;;;;35.65;25.30;;;128.40;2252.80;;;;;;5035835;28;20412;-83
2023/04/09 03:32:58;;;;;;;33.28;23.63;;;128.50;2252.80;;;;;;5035866;28;20043;-81
2023/04/09 03:35:24;;;;;;;36.30;24.92;;;128.60;2252.80;;;;;;5035884;28;20112;-85
2023/04/09 03:37:50;;;;;;;34.88;26.02;;;128.50;2252.80;;;;;;5021676;28;20085;-85
2023/04/09 03:40:15;;;;;;;36.85;27.38;;;128.40;2252.80;;;;;;5012991;28;20030;-84
2023/04/09 03:42:42;;;;;;;40.90;29.65;;;128.60;2252.80;;;;;;5014306;28;20485;-83
2023/04/09 03:45:08;;;;;;;37.40;27.88;;;128.60;2252.80;;;;;;5016771;28;20026;-84
2023/04/09 03:47:34;;;;;;;44.42;30.17;;;128.60;2252.80;;;;;;5016861;28;20429;-83
2023/04/09 03:50:00;;;;;;;35.70;26.80;;;128.50;2252.80;;;;;;5016837;28;20038;-81
2023/04/09 03:52:26;;;;;;;37.00;27.90;;;128.60;2252.80;;;;;;5016743;28;20033;-80
2023/04/09 03:54:51;;;;;;;45.25;29.00;;;128.70;2252.80;;;;;;5016903;28;20030;-82
2023/04/09 03:57:17;;;;;;;45.55;30.90;;;128.70;2252.80;;;;;;5016854;28;20065;-84
2023/04/09 03:59:44;;;;;;;43.38;30.08;;;128.40;2252.80;;;;;;5016702;28;20027;-86
2023/04/09 04:02:09;;;;;;;44.88;30.55;;;128.80;2252.80;;;;;;5016849;28;20400;-83
2023/04/09 04:04:35;;;;;;;42.00;29.08;;;128.70;2252.80;;;;;;5016191;28;20121;-83
2023/04/09 04:07:02;;;;;;;42.05;28.23;;;128.80;2252.80;;;;;;5016781;28;20057;-82
2023/04/09 04:09:28;;;;;;;42.95;29.77;;;128.70;2252.80;;;;;;5016737;28;20037;-83
2023/04/09 04:11:55;;;;;;;43.15;29.13;;;128.40;2252.80;;;;;;5016320;28;20029;-84
2023/04/09 04:14:21;;;;;;;47.83;30.77;;;128.50;2252.80;;;;;;5016542;28;20026;-82
2023/04/09 04:16:47;;;;;;;38.65;26.20;;;128.50;2252.80;;;;;;5016378;28;20037;-86
2023/04/09 04:19:13;;;;;;;46.40;31.02;;;128.50;2252.80;;;;;;5016102;28;20124;-86
2023/04/09 04:21:38;;;;;;;50.25;32.65;;;128.50;2252.80;;;;;;5016365;28;20049;-85
2023/04/09 04:24:05;;;;;;;41.47;28.52;;;128.60;2252.80;;;;;;5016331;28;20474;-83
2023/04/09 04:26:30;;;;;;;37.40;25.52;;;128.50;2252.80;;;;;;5015961;28;20052;-83
2023/04/09 04:28:56;;;;;;;35.60;23.65;;;128.30;2252.80;;;;;;5014147;28;20525;-84
2023/04/09 04:31:22;;;;;;;39.50;25.55;;;128.40;2252.80;;;;;;5015568;28;20034;-84
2023/04/09 04:33:48;;;;;;;35.33;25.77;;;128.40;2252.80;;;;;;5015338;28;20030;-85
2023/04/09 04:36:14;;;;;;;42.47;28.58;;;128.50;2252.80;;;;;;5015970;28;20125;-79
2023/04/09 04:38:40;;;;;;;41.75;28.30;;;128.40;2252.80;;;;;;5015583;28;20053;-83
2023/04/09 04:41:07;;;;;;;45.10;27.95;;;128.40;2252.80;;;;;;5015972;28;20117;-80
2023/04/09 04:43:33;;;;;;;47.75;30.55;;;128.60;2252.80;;;;;;5016089;28;20036;-82
2023/04/09 04:45:59;;;;;;;72.30;41.38;;;128.60;2252.80;;;;;;5015918;28;20478;-82
2023/04/09 04:48:26;;;;;;;81.00;50.72;;;128.60;2252.80;;;;;;5015347;28;20037;-83
2023/04/09 04:50:57;;;;;;;66.60;42.83;;;128.60;2252.80;;;;;;5014735;28;20054;-85
2023/04/09 04:53:23;;;;;;;47.67;32.95;;;128.60;2252.80;;;;;;4998484;28;20125;-81
2023/04/09 04:55:49;;;;;;;41.20;29.73;;;128.70;2252.80;;;;;;5014297;28;20022;-83
2023/04/09 04:58:16;;;;;;;41.35;29.27;;;128.60;2252.80;;;;;;5015434;28;20436;-83
2023/04/09 05:00:41;;;;;;;41.20;28.52;;;128.80;2252.80;;;;;;5015216;28;20022;-82
2023/04/09 05:03:07;;;;;;;37.45;25.98;;;128.90;2252.80;;;;;;5015446;28;20382;-84
2023/04/09 05:05:33;;;;;;;38.92;27.77;;;128.60;2252.80;;;;;;5022860;28;20025;-82
2023/04/09 05:07:59;;;;;;;42.50;28.13;;;128.50;2252.80;;;;;;5024349;28;20030;-82
2023/04/09 05:10:25;;;;;;;43.00;26.77;;;128.70;2252.80;;;;;;5021752;28;20467;-83
2023/04/09 05:12:51;;;;;;;39.83;26.05;;;128.90;2252.80;;;;;;5009193;28;20459;-82
2023/04/09 05:15:17;;;;;;;38.22;29.20;;;128.90;2252.80;;;;;;4994745;28;20489;-85
2023/04/09 05:17:43;;;;;;;47.75;36.20;;;128.90;2252.80;;;;;;4994931;28;20470;-84
2023/04/09 05:20:10;;;;;;;59.42;42.90;;;128.90;2252.80;;;;;;4995720;28;20025;-86
2023/04/09 05:22:36;;;;;;;57.88;39.60;;;153.70;2252.80;;;;;;4995332;28;20080;-85
2023/04/09 05:25:02;;;;;;;55.72;40.60;;;153.70;2252.80;;;;;;4995476;28;20034;-86
2023/04/09 05:27:28;;;;;;;50.70;36.42;;;153.70;2252.80;;;;;;4995492;28;20026;-82
2023/04/09 05:29:54;;;;;;;47.28;34.03;;;153.60;2252.80;;;;;;4995049;28;20050;-84
2023/04/09 05:32:20;;;;;;;45.95;33.20;;;153.70;2252.80;;;;;;4995428;28;20033;-85
2023/04/09 05:34:46;;;;;;;44.28;33.47;;;153.80;2252.80;;;;;;4995250;28;20387;-86
2023/04/09 05:37:12;;;;;;;43.95;31.02;;;153.80;2252.80;;;;;;4996486;28;20395;-83
2023/04/09 05:39:38;;;;;;;44.30;30.98;;;153.70;2252.80;;;;;;5011675;28;20033;-87
2023/04/09 05:42:04;;;;;;;58.35;38.67;;;153.70;2252.80;;;;;;5000711;28;20026;-85
2023/04/09 05:44:30;;;;;;;61.78;42.03;;;153.70;2252.80;;;;;;4994836;28;20133;-85
2023/04/09 05:46:56;;;;;;;47.50;34.58;;;153.70;2252.80;;;;;;4995065;28;20084;-84
2023/04/09 05:49:22;;;;;;;44.38;33.13;;;153.60;2252.80;;;;;;4994763;28;20467;-86
2023/04/09 05:51:49;;;;;;;47.17;34.20;;;153.60;2252.80;;;;;;4994767;28;20030;-82
2023/04/09 05:54:15;;;;;;;45.25;33.15;;;153.60;2252.80;;;;;;4994886;28;20061;-80
2023/04/09 05:56:42;;;;;;;47.97;33.83;;;153.80;2252.80;;;;;;4994549;28;20035;-86
2023/04/09 05:59:08;;;;;;;50.05;36.63;;;154.00;2252.80;;;;;;4993693;28;20045;-85
2023/04/09 06:01:34;;;;;;;48.53;35.60;;;154.00;2252.80;;;;;;4994385;28;20027;-86
2023/04/09 06:04:00;;;;;;;54.38;38.67;;;154.10;2252.80;;;;;;4993915;28;20034;-83
2023/04/09 06:06:26;;;;;;;51.28;38.47;;;154.10;2252.80;;;;;;4994705;28;20034;-80
2023/04/09 06:08:51;;;;;;;51.83;37.22;;;154.30;2252.80;;;;;;4994241;28;20038;-87
2023/04/09 06:11:17;;;;;;;57.30;43.25;;;154.40;2252.80;;;;;;4994368;28;20041;-85
2023/04/09 06:13:43;;;;;;;58.38;42.55;;;154.40;2252.80;;;;;;4994526;28;20026;-83
2023/04/09 06:16:09;;;;;;;57.70;38.30;;;154.40;2252.80;;;;;;4994306;28;20033;-86
2023/04/09 06:18:36;;;;;;;63.45;44.28;;;154.40;2252.80;;;;;;4994358;28;20125;-84
2023/04/09 06:21:07;;;;;;;72.40;50.92;;;154.50;2252.80;;;;;;4994302;28;20022;-86
2023/04/09 06:23:34;;;;;;;55.47;41.65;;;154.50;2252.80;;;;;;4994756;28;20033;-82
2023/04/09 06:26:00;;;;;;;49.83;38.00;;;179.20;2252.80;;;;;;4994590;28;20126;-84
2023/04/09 06:28:28;;;;;;;56.85;41.55;;;154.30;2252.80;;;;;;5008603;28;20428;-82
2023/04/09 06:30:54;;;;;;;54.97;37.45;;;179.30;2252.80;;;;;;5013528;28;20036;-83
2023/04/09 06:33:21;;;;;;;48.08;36.05;;;179.30;2252.80;;;;;;5013145;28;20018;-85
2023/04/09 06:35:47;;;;;;;46.85;37.05;;;179.50;2252.80;;;;;;5014008;28;20084;-84
2023/04/09 06:38:14;;;;;;;44.33;33.40;;;179.50;2252.80;;;;;;5013695;28;20081;-84
2023/04/09 06:40:40;;;;;;;42.53;32.53;;;179.50;2252.80;;;;;;5013624;28;20029;-87
2023/04/09 06:43:06;;;;;;;46.20;33.42;;;179.40;2252.80;;;;;;5013937;28;20022;-85
2023/04/09 06:45:32;;;;;;;45.80;33.90;;;179.50;2252.80;;;;;;5013485;28;20524;-82
2023/04/09 06:47:59;;;;;;;77.05;52.83;;;179.50;2252.80;;;;;;5013660;28;20033;-82
2023/04/09 06:50:25;;;;;;;93.00;58.08;;;179.50;2252.80;;;;;;5013739;28;20140;-80
2023/04/09 06:52:51;;;;;;;58.33;42.50;;;179.60;2252.80;;;;;;5013495;28;20486;-83
2023/04/09 06:55:17;;;;;;;46.85;38.17;;;179.70;2252.80;;;;;;5013645;28;20414;-86
2023/04/09 06:57:43;;;;;;;45.00;36.13;;;179.90;2252.80;;;;;;5013583;28;20124;-84
2023/04/09 07:00:09;;;;;;;109.97;81.63;;;179.90;2252.80;;;;;;5013317;28;20490;-85
2023/04/09 07:02:36;;;;;;;114.40;81.10;;;179.90;2252.80;;;;;;5013400;28;20029;-85
2023/04/09 07:05:03;;;;;;;121.45;88.75;;;179.90;2252.80;;;;;;5013432;28;20458;-85
2023/04/09 07:07:28;;;;;;;75.75;57.38;;;179.90;2252.80;;;;;;5013087;28;20495;-84
2023/04/09 07:09:54;;;;;;;67.13;47.75;;;179.90;2252.80;;;;;;5013389;28;20109;-81
2023/04/09 07:12:31;;;;;;;67.80;47.55;;;180.00;2252.80;;;;;;5013364;28;20026;-84
2023/04/09 07:15:15;;;;;;;64.10;46.90;;;180.10;2252.80;;;;;;5013365;28;20030;-81
2023/04/09 07:17:42;;;;;;;68.25;49.03;;;204.90;2252.80;;;;;;5013090;28;20482;-80
2023/04/09 07:20:08;;;;;;;73.50;51.40;;;205.10;2252.80;;;;;;5013356;28;20358;-88
2023/04/09 07:22:35;;;;;;;70.30;51.17;;;205.10;2252.80;;;;;;5012974;28;20083;-84
2023/04/09 07:25:01;;;;;;;63.88;47.20;;;205.10;2252.80;;;;;;5013374;28;20516;-83
2023/04/09 07:27:28;;;;;;;70.70;51.42;;;205.20;2252.80;;;;;;5011947;28;20030;-89
2023/04/09 07:29:55;;;;;;;74.65;58.50;;;205.30;2252.80;;;;;;5012692;28;20030;-86
2023/04/09 07:32:21;;;;;;;77.28;63.28;;;205.20;2252.80;;;;;;5012168;28;20026;-81
2023/04/09 07:34:47;;;;;;;74.35;57.45;;;205.20;2252.80;;;;;;5012795;28;20520;-86
2023/04/09 07:37:13;;;;;;;66.88;50.28;;;205.50;2252.80;;;;;;5018437;28;20050;-88
2023/04/09 07:39:39;;;;;;;65.75;48.97;;;205.60;2252.80;;;;;;5032927;28;20030;-89
2023/04/09 07:42:05;;;;;;;63.72;48.30;;;205.70;2252.80;;;;;;5032420;28;20124;-81
2023/04/09 07:44:37;;;;;;;56.00;44.08;;;230.40;2252.80;;;;;;5032324;28;20061;-83
2023/04/09 07:47:05;;;;;;;58.38;48.53;;;230.50;2252.80;;;;;;5032585;28;20029;-83
2023/04/09 07:49:31;;;;;;;69.03;52.70;;;230.50;2252.80;;;;;;5032333;28;20484;-86
2023/04/09 07:51:58;;;;;;;59.22;46.65;;;230.60;2252.80;;;;;;5032718;28;20473;-84
2023/04/09 07:54:24;;;;;;;63.75;46.10;;;230.60;2252.80;;;;;;5032354;28;20060;-85
2023/04/09 07:56:50;;;;;;;55.58;42.10;;;230.70;2252.80;;;;;;5032632;28;20029;-86
2023/04/09 07:59:16;;;;;;;60.30;45.53;;;230.70;2252.80;;;;;;5031907;28;20096;-86
2023/04/09 08:01:42;;;;;;;116.60;57.60;;;230.90;2252.80;;;;;;5032438;28;20022;-88
2023/04/09 08:04:09;;;;;;;119.85;58.85;;;231.00;2252.80;;;;;;5031928;28;20040;-85
2023/04/09 08:06:35;;;;;;;114.22;58.13;;;231.20;2252.80;;;;;;5034013;28;20033;-86
2023/04/09 08:09:01;;;;;;;61.80;50.17;;;231.30;2252.80;;;;;;5033504;28;20044;-89
2023/04/09 08:11:27;;;;;;;43.85;34.63;;;256.00;2252.80;;;;;;5033943;28;20036;-87
2023/04/09 08:13:54;;;;;;;39.85;32.38;;;231.30;2252.80;;;;;;5032625;28;20025;-89
2023/04/09 08:16:20;;;;;;;39.42;30.15;;;256.10;2252.80;;;;;;5033946;28;20021;-88
2023/04/09 08:18:46;;;;;;;44.25;34.65;;;256.30;2252.80;;;;;;5032751;28;20075;-87
2023/04/09 08:21:12;;;;;;;41.60;33.22;;;256.20;2252.80;;;;;;5036335;28;20029;-84
2023/04/09 08:23:38;;;;;;;38.70;32.25;;;256.30;2252.80;;;;;;5034432;28;20033;-86
2023/04/09 08:26:03;;;;;;;39.90;31.00;;;256.40;2252.80;;;;;;5033487;28;20036;-82
2023/04/09 08:28:30;;;;;;;42.42;31.70;;;256.40;2252.80;;;;;;5032286;28;20033;-86
2023/04/09 08:30:55;;;;;;;44.97;33.20;;;256.50;2252.80;;;;;;5035439;28;20059;-87
2023/04/09 08:33:21;;;;;;;53.10;35.97;;;256.60;2252.80;;;;;;5036215;28;20022;-87
2023/04/09 08:35:47;;;;;;;47.25;34.65;;;256.90;2252.80;;;;;;5036103;28;20457;-86
2023/04/09 08:38:14;;;;;;;49.22;37.28;;;281.60;2278.40;;;;;;5016404;28;20546;-89
2023/04/09 08:40:40;;;;;;;44.15;34.00;;;281.70;2278.40;;;;;;4999386;28;20034;-89
2023/04/09 08:43:07;;;;;;;49.17;36.53;;;281.70;2278.40;;;;;;5010043;28;20030;-88
2023/04/09 08:45:33;;;;;;;51.92;38.28;;;256.90;2252.80;;;;;;5006038;28;20029;-86
2023/04/09 08:48:02;;;;;;;60.05;38.85;;;281.60;2278.40;;;;;;5006373;28;20391;-87
2023/04/09 08:50:30;;;;;;;49.30;33.85;;;281.60;2278.40;;;;;;5015421;28;20037;-84
2023/04/09 08:52:57;;;;;;;39.90;31.25;;;281.70;2278.40;;;;;;5015205;28;20425;-87
2023/04/09 08:55:23;;;;;;;46.45;33.17;;;281.80;2278.40;;;;;;5008293;28;20093;-87
2023/04/09 08:57:49;;;;;;;35.78;28.35;;;281.90;2278.40;;;;;;5012690;28;20033;-89
2023/04/09 09:00:14;;;;;;;39.88;28.80;;;282.00;2278.40;;;;;;5015670;28;20371;-87
2023/04/09 09:03:03;;;;;;;35.25;26.27;;;282.00;2278.40;;;;;;4996817;28;20462;-87
2023/04/09 09:05:40;;;;;;;46.88;34.15;;;282.00;2278.40;;;;;;4995718;28;20022;-86
2023/04/09 09:08:11;;;;;;;57.00;42.50;;;281.90;2278.40;;;;;;5009635;28;20033;-92
2023/04/09 09:10:44;;;;;;;44.08;33.63;;;281.90;2278.40;;;;;;5000484;28;20042;-88
2023/04/09 09:13:23;;;;;;;47.58;36.78;;;281.90;2278.40;;;;;;5008651;28;20041;-86
2023/04/09 09:15:54;;;;;;;49.17;38.78;;;281.90;2278.40;;;;;;5007936;28;20030;-89
2023/04/09 09:18:20;;;;;;;50.75;38.22;;;281.90;2278.40;;;;;;5015674;28;20052;-86
2023/04/09 09:20:46;;;;;;;40.90;31.75;;;282.00;2278.40;;;;;;5014938;28;20022;-87
2023/04/09 09:23:12;;;;;;;46.45;34.30;;;282.10;2278.40;;;;;;5015258;28;20526;-87
2023/04/09 09:25:39;;;;;;;50.17;38.60;;;282.20;2278.40;;;;;;5004798;28;20031;-85
2023/04/09 09:28:12;;;;;;;49.63;37.20;;;282.20;2278.40;;;;;;5010458;28;20029;-86
2023/04/09 09:30:39;;;;;;;47.92;36.67;;;282.20;2278.40;;;;;;4998912;28;20034;-85
2023/04/09 09:33:07;;;;;;;44.97;34.30;;;282.30;2278.40;;;;;;5015296;28;20029;-82
2023/04/09 09:35:56;;;;;;;50.85;36.47;;;282.50;2278.40;;;;;;5005614;28;20037;-86
2023/04/09 09:38:22;;;;;;;41.75;34.17;;;282.50;2278.40;;;;;;5027341;28;20049;-86
2023/04/09 09:40:48;;;;;;;46.45;34.42;;;282.50;2278.40;;;;;;5030248;28;20022;-89
2023/04/09 09:43:14;;;;;;;41.05;30.88;;;282.50;2278.40;;;;;;5022985;28;20033;-87
2023/04/09 09:45:42;;;;;;;38.88;29.35;;;282.50;2278.40;;;;;;5025344;28;20029;-86
2023/04/09 09:48:10;;;;;;;59.78;46.58;;;282.50;2278.40;;;;;;5029027;28;20551;-85
2023/04/09 09:50:37;;;;;;;39.65;31.13;;;307.20;2304.00;;;;;;5018480;28;20033;-86
2023/04/09 09:53:04;;;;;;;32.08;26.50;;;307.20;2304.00;;;;;;5028653;28;20076;-84
2023/04/09 09:55:37;;;;;;;43.22;33.55;;;307.20;2304.00;;;;;;5016205;28;20156;-85
2023/04/09 09:58:29;;;;;;;43.40;34.13;;;307.30;2304.00;;;;;;5030133;28;20049;-84
2023/04/09 10:00:56;;;;;;;34.05;28.65;;;307.20;2304.00;;;;;;5022330;28;20022;-82
2023/04/09 10:03:26;;;;;;;76.07;61.90;;;307.60;2304.00;;;;;;5023743;28;20044;-83
2023/04/09 10:05:52;;;;;;;55.38;43.25;;;307.40;2304.00;;;;;;5024835;28;20034;-84
2023/04/09 10:08:20;;;;;;;32.33;27.38;;;307.40;2304.00;;;;;;5033044;28;20025;-82
2023/04/09 10:10:47;;;;;;;34.25;26.95;;;307.40;2304.00;;;;;;5021012;28;20086;-82
2023/04/09 10:13:42;;;;;;;31.75;25.40;;;307.50;2304.00;;;;;;5037640;28;20022;-82
2023/04/09 10:16:08;;;;;;;29.73;24.77;;;307.50;2304.00;;;;;;5018309;28;20042;-82
2023/04/09 10:18:35;;;;;;;29.42;25.38;;;307.50;2304.00;;;;;;5015112;28;20382;-81
2023/04/09 10:21:16;;;;;;;37.58;30.00;;;307.60;2304.00;;;;;;5028008;28;20033;-85
2023/04/09 10:23:44;;;;;;;35.67;27.50;;;307.70;2304.00;;;;;;5024279;28;20057;-79
2023/04/09 10:26:10;;;;;;;31.90;26.55;;;307.80;2304.00;;;;;;5018871;28;20032;-83
2023/04/09 10:28:39;;;;;;;34.22;26.33;;;307.80;2304.00;;;;;;5031884;28;20036;-79
2023/04/09 10:31:06;;;;;;;33.95;27.23;;;307.80;2304.00;;;;;;5033298;28;20030;-81
2023/04/09 10:33:34;;;;;;;34.15;27.88;;;308.10;2304.00;;;;;;5023839;28;20382;-82
2023/04/09 10:36:04;;;;;;;32.13;26.75;;;308.00;2304.00;;;;;;5028175;28;20507;-87
2023/04/09 10:38:39;;;;;;;40.60;31.88;;;308.10;2304.00;;;;;;5031560;28;20053;-80
2023/04/09 10:41:28;;;;;;;40.00;30.55;;;332.90;2329.60;;;;;;5019394;28;20025;-84
2023/04/09 10:43:54;;;;;;;29.38;24.30;;;333.10;2329.60;;;;;;5034476;28;20021;-79
2023/04/09 10:46:28;;;;;;;26.05;21.15;;;333.00;2329.60;;;;;;5033202;28;20056;-78
2023/04/09 10:49:17;;;;;;;33.38;25.95;;;333.10;2329.60;;;;;;5032853;28;20040;-78
2023/04/09 10:52:00;;;;;;;40.80;32.15;;;333.20;2329.60;;;;;;5032397;28;20123;-81
2023/04/09 10:54:32;;;;;;;30.40;24.98;;;333.30;2329.60;;;;;;5033873;28;20025;-75
2023/04/09 10:57:06;;;;;;;31.85;24.98;;;333.50;2329.60;;;;;;5033134;28;20026;-81
2023/04/09 10:59:40;;;;;;;33.45;26.83;;;333.70;2329.60;;;;;;5033424;28;20033;-80
2023/04/09 11:02:08;;;;;;;26.23;20.38;;;358.40;2329.60;;;;;;5033736;28;20104;-77
2023/04/09 11:05:07;;;;;;;21.95;18.83;;;358.40;2329.60;;;;;;5034173;28;20017;-77
2023/04/09 11:07:40;;;;;;;29.77;23.08;;;358.40;2329.60;;;;;;5032527;28;20033;-76
2023/04/09 11:10:06;;;;;;;26.33;21.40;;;358.40;2329.60;;;;;;5032690;28;20061;-78
2023/04/09 11:12:32;;;;;;;23.63;18.77;;;358.40;2329.60;;;;;;5032739;28;20099;-78
2023/04/09 11:14:58;;;;;;;26.05;22.23;;;333.70;2329.60;;;;;;5032485;28;20465;-79
2023/04/09 11:17:24;;;;;;;76.10;53.97;;;333.70;2329.60;;;;;;5034049;28;20036;-79
2023/04/09 11:19:50;;;;;;;85.38;57.40;;;333.70;2329.60;;;;;;5032541;28;20030;-78
2023/04/09 11:22:16;;;;;;;29.60;23.33;;;333.60;2329.60;;;;;;5032249;28;20095;-79
2023/04/09 11:24:42;;;;;;;24.35;21.15;;;333.50;2329.60;;;;;;5034234;28;20021;-80
2023/04/09 11:27:08;;;;;;;23.70;21.15;;;333.40;2329.60;;;;;;5032410;28;20021;-78
2023/04/09 11:29:35;;;;;;;54.03;42.30;;;333.20;2329.60;;;;;;5032106;28;20076;-80
2023/04/09 11:32:01;;;;;;;63.22;56.42;;;333.20;2329.60;;;;;;5019443;28;20547;-82
2023/04/09 11:34:37;;;;;;;53.75;42.80;;;333.20;2329.60;;;;;;5012715;28;20030;-84
2023/04/09 11:37:07;;;;;;;37.08;31.13;;;333.20;2329.60;;;;;;5027317;28;20077;-82
2023/04/09 11:39:36;;;;;;;22.58;19.52;;;333.20;2329.60;;;;;;5029142;28;20125;-84
2023/04/09 11:42:02;;;;;;;29.50;22.77;;;333.10;2329.60;;;;;;5019618;28;20021;-84
2023/04/09 11:44:29;;;;;;;42.88;32.92;;;333.10;2329.60;;;;;;5021837;28;20496;-83
2023/04/09 11:46:56;;;;;;;47.83;34.17;;;333.10;2329.60;;;;;;5013354;28;20030;-88
2023/04/09 11:49:22;;;;;;;55.95;45.50;;;333.20;2329.60;;;;;;5014425;28;20033;-83
2023/04/09 11:51:48;;;;;;;48.88;39.35;;;333.30;2329.60;;;;;;5032614;28;20408;-83
2023/04/09 11:54:14;;;;;;;63.78;40.17;;;333.40;2329.60;;;;;;5023493;28;20033;-85
2023/04/09 11:56:40;;;;;;;102.45;56.58;;;333.40;2329.60;;;;;;5024950;28;20038;-82
2023/04/09 11:59:05;;;;;;;64.25;41.25;;;333.50;2329.60;;;;;;5030232;28;20041;-82
2023/04/09 12:01:32;;;;;;;50.35;35.85;;;333.50;2329.60;;;;;;5031141;28;20456;-82
2023/04/09 12:03:59;;;;;;;43.22;33.58;;;333.50;2329.60;;;;;;5033195;28;20488;-80